Flight Track Log - Related Links

Times and Time Zones

All times are in EDT time to prevent confusion due to time zone crossing. See the SKW7380 flight status page for this flight to view local times or setup timezone preferences in your user account.

Time Position Orientation Groundspeed Altitude Reporting Facility
EDT Latitude Longitude Course Direction KTS MPH feet Rate Location/Type
Fri 07:15:47 PM 40.8092 -112.0039 189° South 166 191 5,100  Level Salt Lake Center
Fri 07:16:54 PM 40.8289 -112.0822 288° West 221 254 7,200 1,610 Climbing Salt Lake Center
Fri 07:17:09 PM 40.8286 -112.0975 269° West 225 259 7,300 2,026 Climbing Salt Lake Center
Fri 07:18:11 PM 40.8136 -112.1969 259° West 272 313 9,800 2,098 Climbing Salt Lake Center
Fri 07:19:00 PM 40.5699 -112.2972 186° South  Level FlightAware Approximate
Fri 07:19:12 PM 40.7581 -112.2683 224° Southwest 298 343 11,600  Level Salt Lake Center
Fri 07:20:00 PM 40.4616 -112.3244 189° South  Level FlightAware Approximate
Fri 07:20:14 PM 40.6692 -112.2950 193° South 327 376 13,500  Level Salt Lake Center
Fri 07:21:00 PM 40.3701 -112.3427 189° South  Level FlightAware Approximate
Fri 07:21:15 PM 40.5750 -112.3103 187° South 339 390 15,500  Level Salt Lake Center
Fri 07:22:17 PM 40.4789 -112.3297 189° South 350 403 17,500 1,839 Climbing Salt Lake Center
Fri 07:23:19 PM 40.3617 -112.3547 189° South 360 414 19,300 1,610 Climbing Salt Lake Center
Fri 07:24:20 PM 40.2686 -112.4075 203° Southwest 366 421 20,800 1,463 Climbing Salt Lake Center
Fri 07:25:22 PM 40.1792 -112.4708 208° Southwest 368 423 22,300 1,452 Climbing Salt Lake Center
Fri 07:26:24 PM 40.0894 -112.5342 208° Southwest 369 425 23,800 1,463 Climbing Salt Lake Center
Fri 07:27:25 PM 39.9997 -112.5967 208° Southwest 366 421 25,300 1,073 Climbing Salt Lake Center
Fri 07:28:27 PM 39.9119 -112.6597 209° Southwest 361 415 26,000 339 Climbing Salt Lake Center
Fri 07:29:29 PM 39.8150 -112.7222 206° Southwest 379 436 26,000  Level Salt Lake Center
Fri 07:30:31 PM 39.7075 -112.7983 209° Southwest 401 461 26,000  Level Salt Lake Center
Fri 07:31:32 PM 39.5872 -112.8289 191° South 436 502 26,000  Level Salt Lake Center
Fri 07:32:34 PM 39.4386 -112.8539 187° South 449 517 26,000  Level Salt Lake Center
Fri 07:33:36 PM 39.3139 -112.8736 187° South 452 520 26,000  Level Salt Lake Center
Fri 07:34:37 PM 39.1892 -112.8900 186° South 450 518 26,000  Level Salt Lake Center
Fri 07:35:39 PM 39.0664 -112.9075 186° South 446 513 26,000  Level Salt Lake Center
Fri 07:36:41 PM 38.9428 -112.9267 187° South 447 514 26,000  Level Salt Lake Center
Fri 07:37:43 PM 38.8208 -112.9444 186° South 444 511 26,000  Level Salt Lake Center
Fri 07:38:44 PM 38.6975 -112.9614 186° South 444 511 26,000  Level Salt Lake Center
Fri 07:39:46 PM 38.5494 -112.9828 186° South 446 513 26,000 -1,548 Level Salt Lake Center
Fri 07:40:48 PM 38.4294 -112.9997 186° South 439 505 22,800 -2,439 Descending Salt Lake Center
Fri 07:41:49 PM 38.3136 -113.0175 187° South 425 489 21,000 -2,488 Descending Salt Lake Center
Fri 07:42:51 PM 38.2144 -113.0308 186° South 372 428 17,700 -3,484 Descending Salt Lake Center
Fri 07:43:53 PM 38.1181 -113.0208 175° South 362 417 13,800 -3,097 Descending Salt Lake Center
Fri 07:44:55 PM 38.0272 -112.9786 160° South 354 407 11,300 -1,707 Descending Salt Lake Center
Fri 07:45:56 PM 37.9447 -112.9939 188° South 318 366 10,300 -984 Descending Salt Lake Center

Login

Don't have an account? Register now (free) for customized features, flight alerts, and more!